Cheswold, Delaware
Current Conditions -  °F | °C
As of 12:58 AM on Sunday 21 Dec 2014 (Local Time) from KDOV Reporting Station
Scattered Clouds Scattered Clouds  
Wind Chill: 30°   Ceiling: Unl
Heat Index: 30°   Visibility: 10mi
Dew Point: 27°   Wind: 1mph
Humidity: 87%   Direction: 280°W
Pressure: 30.28"   Gusts: NA
Location:  39.22°N, 75.59°W
Report Text: KDOV 210558Z AUTO 28001KT 10SM SCT085 M01/M03 A3028 RMK AO2 SLP257 T10111030 11000 21020 58001
Loading
Personal Weather Stations






























Interactive Weather Map New forecast layout! Learn more

10-Day Weather Forecast

Advertisements
Track Severe Weather on mobile